Summit, North Carolina
Current Conditions -  °F | °C
As of 3:54 PM on Saturday 22 Nov 2014 (Local Time) from KGSO Reporting Station
Broken Clouds Broken Clouds  
Wind Chill: 52°   Ceiling: 25000
Heat Index: 52°   Visibility: 10mi
Dew Point: 15°   Wind: 5mph
Humidity: 23%   Direction: 210°SSW
Pressure: 30.37"   Gusts: NA
Location:  36.1157°N, 79.7378°W
Report Text: KGSO 222054Z 21004KT 10SM BKN250 11/M09 A3037 RMK AO2 SLP286 T01111094 56021
Loading
Personal Weather Stations






























Interactive Weather Map New forecast layout! Learn more

10-Day Weather Forecast

Advertisements
Track Severe Weather on mobile